Time;durP1;ratioP1;P1;durP2;ratioP2;P2;SDS_P1;SDS_P2;PMS_P1;PMS_P2;Temp;Humidity;BMP_temperature;BMP_pressure;BME280_temperature;BME280_humidity;BME280_pressure;Samples;Min_cycle;Max_cycle;Signal;HPM_P1;HPM_P2
2023/09/09 00:01:02;;;;;;;8.90;4.80;;;19.90;99.90;;;;;;4988030;28;20121;-78
2023/09/09 00:03:28;;;;;;;8.05;5.07;;;19.90;99.90;;;;;;4992407;28;20134;-79
2023/09/09 00:05:53;;;;;;;6.60;4.50;;;19.90;99.90;;;;;;4994087;28;20549;-79
2023/09/09 00:08:19;;;;;;;8.07;5.10;;;19.90;99.90;;;;;;4995038;28;20034;-79
2023/09/09 00:10:45;;;;;;;7.45;4.68;;;19.90;99.90;;;;;;4989588;28;20053;-78
2023/09/09 00:13:11;;;;;;;7.72;5.05;;;19.90;99.90;;;;;;4992705;28;20049;-79
2023/09/09 00:15:37;;;;;;;8.63;4.85;;;19.80;99.90;;;;;;4992267;28;20026;-78
2023/09/09 00:18:03;;;;;;;13.40;5.00;;;19.80;99.90;;;;;;4991970;28;20037;-79
2023/09/09 00:20:34;;;;;;;8.57;5.03;;;19.80;99.90;;;;;;4989666;28;20093;-78
2023/09/09 00:23:07;;;;;;;9.88;4.80;;;19.80;99.90;;;;;;4990205;28;20089;-79
2023/09/09 00:25:37;;;;;;;10.18;4.93;;;19.80;99.90;;;;;;4992422;28;20034;-79
2023/09/09 00:28:03;;;;;;;7.35;5.25;;;19.80;99.90;;;;;;4994753;28;20044;-79
2023/09/09 00:30:29;;;;;;;10.50;5.43;;;19.80;99.90;;;;;;4999445;28;20036;-78
2023/09/09 00:32:55;;;;;;;7.03;4.65;;;19.80;99.90;;;;;;5003383;28;20015;-79
2023/09/09 00:35:21;;;;;;;7.72;5.65;;;19.80;99.90;;;;;;4999578;28;20388;-79
2023/09/09 00:37:46;;;;;;;14.02;6.20;;;19.80;99.90;;;;;;4995995;28;20030;-79
2023/09/09 00:40:12;;;;;;;9.18;4.80;;;19.80;99.90;;;;;;5002260;28;20124;-79
2023/09/09 00:42:38;;;;;;;16.27;5.65;;;19.80;99.90;;;;;;4999979;28;20448;-79
2023/09/09 00:45:04;;;;;;;6.65;4.65;;;19.70;99.90;;;;;;4995354;28;20027;-79
2023/09/09 00:47:31;;;;;;;6.78;4.95;;;19.80;99.90;;;;;;4995260;28;20565;-79
2023/09/09 00:49:58;;;;;;;9.27;5.20;;;19.80;99.90;;;;;;4995447;28;20043;-78
2023/09/09 00:52:24;;;;;;;10.48;5.07;;;19.80;99.90;;;;;;4996882;28;20034;-79
2023/09/09 00:54:50;;;;;;;9.25;5.13;;;19.70;99.90;;;;;;4995541;28;20038;-79
2023/09/09 00:57:19;;;;;;;7.47;5.00;;;19.70;99.90;;;;;;4995945;28;20041;-79
2023/09/09 00:59:46;;;;;;;8.25;5.00;;;19.70;99.90;;;;;;4995441;28;20046;-79
2023/09/09 01:02:12;;;;;;;8.10;5.53;;;19.70;99.90;;;;;;4997374;28;20488;-78
2023/09/09 01:04:38;;;;;;;16.73;5.60;;;19.70;99.90;;;;;;5001753;28;20080;-79
2023/09/09 01:07:04;;;;;;;8.07;5.63;;;19.60;99.90;;;;;;5006559;28;20056;-79
2023/09/09 01:09:30;;;;;;;7.93;5.30;;;19.50;99.90;;;;;;5000041;28;20540;-79
2023/09/09 01:11:58;;;;;;;10.77;4.85;;;19.60;99.90;;;;;;4998540;28;20046;-79
2023/09/09 01:14:24;;;;;;;9.95;6.03;;;19.50;99.90;;;;;;4995562;28;20034;-78
2023/09/09 01:16:51;;;;;;;6.97;4.70;;;19.50;99.90;;;;;;4995982;28;20034;-79
2023/09/09 01:19:19;;;;;;;7.72;4.65;;;19.60;99.90;;;;;;4999306;28;20038;-79
2023/09/09 01:21:46;;;;;;;9.05;5.13;;;19.60;99.90;;;;;;4996227;28;20034;-79
2023/09/09 01:24:15;;;;;;;8.45;6.07;;;19.60;99.90;;;;;;4997996;28;20022;-78
2023/09/09 01:26:44;;;;;;;9.25;5.38;;;19.60;99.90;;;;;;5002295;28;20034;-79
2023/09/09 01:29:10;;;;;;;8.02;5.20;;;19.60;99.90;;;;;;5001024;28;20438;-79
2023/09/09 01:31:35;;;;;;;7.85;4.72;;;19.60;99.90;;;;;;4998496;28;20073;-78
2023/09/09 01:34:01;;;;;;;9.93;5.25;;;19.60;99.90;;;;;;4996181;28;20389;-79
2023/09/09 01:36:30;;;;;;;8.70;5.30;;;19.70;99.90;;;;;;4995021;28;20092;-79
2023/09/09 01:38:56;;;;;;;10.65;5.30;;;19.60;99.90;;;;;;4991265;28;20495;-78
2023/09/09 01:41:22;;;;;;;9.93;5.00;;;19.60;99.90;;;;;;4997378;28;20027;-78
2023/09/09 01:43:48;;;;;;;6.88;4.88;;;19.60;99.90;;;;;;4992813;28;20119;-79
2023/09/09 01:46:14;;;;;;;8.68;4.57;;;19.70;99.90;;;;;;4993471;28;20141;-79
2023/09/09 01:48:39;;;;;;;13.75;5.55;;;19.60;99.90;;;;;;4993023;28;20031;-79
2023/09/09 01:51:06;;;;;;;8.60;5.18;;;19.50;99.90;;;;;;4992436;28;20030;-79
2023/09/09 01:53:31;;;;;;;9.27;5.07;;;19.50;99.90;;;;;;4992753;28;20048;-78
2023/09/09 01:55:58;;;;;;;8.95;5.15;;;19.60;99.90;;;;;;4993453;28;20038;-79
2023/09/09 01:58:24;;;;;;;11.05;5.18;;;19.50;99.90;;;;;;4995616;28;20069;-79
2023/09/09 02:00:49;;;;;;;8.20;5.00;;;19.60;99.90;;;;;;4992641;28;20112;-78
2023/09/09 02:03:15;;;;;;;9.43;5.40;;;19.40;99.90;;;;;;4993915;28;20377;-79
2023/09/09 02:05:41;;;;;;;9.38;5.10;;;19.10;99.90;;;;;;4998894;28;20053;-79
2023/09/09 02:08:07;;;;;;;6.57;4.78;;;19.10;99.90;;;;;;4997054;28;20112;-78
2023/09/09 02:10:32;;;;;;;6.85;4.95;;;19.10;99.90;;;;;;4991819;28;20026;-79
2023/09/09 02:12:58;;;;;;;11.98;6.50;;;19.20;99.90;;;;;;4996589;28;20061;-78
2023/09/09 02:15:24;;;;;;;8.55;5.35;;;19.20;99.90;;;;;;4993998;28;20026;-78
2023/09/09 02:17:50;;;;;;;9.00;5.00;;;19.20;99.90;;;;;;4998072;28;20446;-78
2023/09/09 02:20:16;;;;;;;9.70;5.85;;;19.20;99.90;;;;;;4992210;28;20133;-78
2023/09/09 02:22:41;;;;;;;7.72;5.75;;;19.20;99.90;;;;;;4995805;28;20061;-79
2023/09/09 02:25:08;;;;;;;7.95;5.50;;;19.10;99.90;;;;;;4991193;28;20049;-79
2023/09/09 02:27:34;;;;;;;10.30;5.80;;;19.00;99.90;;;;;;4992901;28;20531;-79
2023/09/09 02:30:01;;;;;;;9.35;5.85;;;19.10;99.90;;;;;;4997344;28;20456;-79
2023/09/09 02:32:27;;;;;;;9.40;5.47;;;19.10;99.90;;;;;;4993366;28;20034;-79
2023/09/09 02:34:53;;;;;;;9.73;5.13;;;19.10;99.90;;;;;;4997780;28;20519;-78
2023/09/09 02:37:20;;;;;;;8.23;4.97;;;19.10;99.90;;;;;;4993892;28;20105;-79
2023/09/09 02:39:50;;;;;;;10.68;5.40;;;19.20;99.90;;;;;;4993231;28;20034;-79
2023/09/09 02:42:21;;;;;;;7.60;5.50;;;19.40;99.90;;;;;;4995008;28;20419;-79
2023/09/09 02:44:50;;;;;;;7.57;5.07;;;19.30;99.90;;;;;;4996742;28;20034;-79
2023/09/09 02:47:16;;;;;;;7.72;5.57;;;19.40;99.90;;;;;;4998519;28;20034;-79
2023/09/09 02:49:43;;;;;;;13.75;5.72;;;19.40;99.90;;;;;;4993942;28;20750;-79
2023/09/09 02:52:10;;;;;;;9.20;5.25;;;19.50;99.90;;;;;;4991740;28;20041;-78
2023/09/09 02:54:36;;;;;;;8.10;5.93;;;19.60;99.90;;;;;;4995514;28;20042;-79
2023/09/09 02:57:06;;;;;;;10.13;5.72;;;19.50;99.90;;;;;;4999145;28;20046;-79
2023/09/09 02:59:35;;;;;;;8.50;5.95;;;19.40;99.90;;;;;;4993407;28;20022;-78
2023/09/09 03:02:01;;;;;;;9.15;5.88;;;19.10;99.90;;;;;;4992327;28;20040;-77
2023/09/09 03:04:27;;;;;;;9.68;6.07;;;19.10;99.90;;;;;;4989244;28;20058;-79
2023/09/09 03:06:52;;;;;;;9.18;4.85;;;19.10;99.90;;;;;;4990315;28;20510;-78
2023/09/09 03:09:18;;;;;;;9.77;5.15;;;19.00;99.90;;;;;;4990794;28;20042;-78
2023/09/09 03:11:44;;;;;;;9.05;5.25;;;19.00;99.90;;;;;;4984671;28;20093;-79
2023/09/09 03:14:09;;;;;;;7.03;5.03;;;19.00;99.90;;;;;;4986752;28;20129;-79
2023/09/09 03:16:36;;;;;;;6.88;5.00;;;19.00;99.90;;;;;;4987565;28;20424;-79
2023/09/09 03:19:02;;;;;;;11.30;5.35;;;18.90;99.90;;;;;;4988447;28;20468;-78
2023/09/09 03:21:28;;;;;;;8.18;5.05;;;18.90;99.90;;;;;;4990575;28;20041;-78
2023/09/09 03:23:54;;;;;;;6.85;4.63;;;18.90;99.90;;;;;;4985184;28;20539;-78
2023/09/09 03:26:22;;;;;;;8.35;5.65;;;19.00;99.90;;;;;;4984710;28;20109;-79
2023/09/09 03:28:51;;;;;;;7.70;5.40;;;19.10;99.90;;;;;;4990718;28;20045;-77
2023/09/09 03:31:17;;;;;;;7.80;5.28;;;19.20;99.90;;;;;;4987424;28;20088;-78
2023/09/09 03:33:43;;;;;;;8.05;5.10;;;19.10;99.90;;;;;;4995608;28;20476;-79
2023/09/09 03:36:09;;;;;;;8.25;5.07;;;18.90;99.90;;;;;;4993717;28;20140;-78
2023/09/09 03:38:35;;;;;;;8.55;5.68;;;18.90;99.90;;;;;;4985821;28;20033;-79
2023/09/09 03:41:05;;;;;;;8.73;5.68;;;19.00;99.90;;;;;;4988221;28;20468;-78
2023/09/09 03:43:31;;;;;;;13.95;6.30;;;19.00;99.90;;;;;;4993835;28;20022;-78
2023/09/09 03:45:57;;;;;;;10.15;5.82;;;19.10;99.90;;;;;;4989389;28;20088;-78
2023/09/09 03:48:24;;;;;;;8.13;5.53;;;18.90;99.90;;;;;;4991303;28;20455;-78
2023/09/09 03:50:50;;;;;;;10.07;5.72;;;18.80;99.90;;;;;;4986562;28;20534;-78
2023/09/09 03:53:15;;;;;;;9.48;5.45;;;18.80;99.90;;;;;;4992676;28;20035;-79
2023/09/09 03:55:41;;;;;;;10.10;5.68;;;18.60;99.90;;;;;;4995771;28;20034;-79
2023/09/09 03:58:07;;;;;;;7.55;5.07;;;18.60;99.90;;;;;;4989064;28;20037;-79
2023/09/09 04:00:33;;;;;;;8.82;5.70;;;18.50;99.90;;;;;;4984469;28;20125;-79
2023/09/09 04:02:59;;;;;;;8.00;5.45;;;18.70;99.90;;;;;;4989399;28;20034;-78
2023/09/09 04:05:25;;;;;;;7.60;5.53;;;18.50;99.90;;;;;;4984010;28;20112;-78
2023/09/09 04:07:51;;;;;;;14.45;6.15;;;18.50;99.90;;;;;;4987450;28;20026;-78
2023/09/09 04:10:17;;;;;;;10.25;6.30;;;18.60;99.90;;;;;;4982744;28;20092;-78
2023/09/09 04:12:42;;;;;;;8.43;5.38;;;18.80;99.90;;;;;;4992333;28;20038;-78
2023/09/09 04:15:10;;;;;;;10.95;5.70;;;18.60;99.90;;;;;;4988756;28;20381;-79
2023/09/09 04:17:36;;;;;;;11.85;6.25;;;18.50;99.90;;;;;;4986549;28;20918;-78
2023/09/09 04:20:03;;;;;;;9.38;5.20;;;18.30;99.90;;;;;;4983133;28;20035;-78
2023/09/09 04:22:29;;;;;;;8.48;5.47;;;18.30;99.90;;;;;;4987621;28;20042;-79
2023/09/09 04:24:55;;;;;;;9.90;5.60;;;18.50;99.90;;;;;;4989777;28;20034;-78
2023/09/09 04:27:21;;;;;;;10.02;5.55;;;18.50;99.90;;;;;;4984104;28;20519;-79
2023/09/09 04:29:47;;;;;;;13.50;6.03;;;18.40;99.90;;;;;;4988540;28;20061;-79
2023/09/09 04:32:13;;;;;;;8.45;5.70;;;18.40;99.90;;;;;;4985751;28;20054;-78
2023/09/09 04:34:39;;;;;;;9.10;5.22;;;18.30;99.90;;;;;;4994300;28;20068;-78
2023/09/09 04:37:04;;;;;;;7.97;5.70;;;18.20;99.90;;;;;;4990181;28;20025;-79
2023/09/09 04:39:30;;;;;;;6.65;4.75;;;18.20;99.90;;;;;;4985143;28;20459;-79
2023/09/09 04:41:56;;;;;;;11.38;6.40;;;18.20;99.90;;;;;;4985309;28;20057;-78
2023/09/09 04:44:22;;;;;;;8.57;6.28;;;18.20;99.90;;;;;;4984671;28;20162;-78
2023/09/09 04:46:47;;;;;;;9.00;5.25;;;18.20;99.90;;;;;;4985073;28;20634;-78
2023/09/09 04:49:13;;;;;;;8.25;4.78;;;18.20;99.90;;;;;;4984774;28;20041;-79
2023/09/09 04:51:39;;;;;;;11.10;6.30;;;18.20;99.90;;;;;;4981849;28;20158;-79
2023/09/09 04:54:04;;;;;;;12.75;5.70;;;18.30;99.90;;;;;;4984493;28;20046;-79
2023/09/09 04:56:30;;;;;;;8.77;4.85;;;18.30;99.90;;;;;;4985108;28;20033;-78
2023/09/09 04:58:56;;;;;;;9.95;5.55;;;18.50;99.90;;;;;;4981865;28;20137;-79
2023/09/09 05:01:21;;;;;;;11.82;6.32;;;18.60;99.90;;;;;;4986869;28;20023;-79
2023/09/09 05:03:47;;;;;;;14.15;6.47;;;18.50;99.90;;;;;;4986147;28;20073;-78
2023/09/09 05:06:13;;;;;;;11.73;6.40;;;18.60;99.90;;;;;;4982799;28;20059;-78
2023/09/09 05:08:40;;;;;;;7.97;5.80;;;18.50;99.90;;;;;;4993555;28;20050;-79
2023/09/09 05:11:05;;;;;;;7.22;5.30;;;18.40;99.90;;;;;;4989372;28;20037;-78
2023/09/09 05:13:31;;;;;;;7.63;5.65;;;18.50;99.90;;;;;;4984338;28;20449;-78
2023/09/09 05:15:57;;;;;;;11.32;7.13;;;18.60;99.90;;;;;;4989680;28;20535;-79
2023/09/09 05:18:22;;;;;;;17.73;6.32;;;18.70;99.90;;;;;;4987695;28;20030;-78
2023/09/09 05:20:48;;;;;;;10.00;5.78;;;18.60;99.90;;;;;;4987417;28;20034;-78
2023/09/09 05:23:14;;;;;;;8.35;5.38;;;18.50;99.90;;;;;;4989128;28;20086;-78
2023/09/09 05:25:39;;;;;;;12.07;5.85;;;18.40;99.90;;;;;;4986638;28;20495;-78
2023/09/09 05:28:05;;;;;;;10.02;6.47;;;18.30;99.90;;;;;;4986532;28;20054;-78
2023/09/09 05:30:30;;;;;;;11.48;5.93;;;18.30;99.90;;;;;;4992818;28;20050;-78
2023/09/09 05:32:56;;;;;;;8.68;5.65;;;18.30;99.90;;;;;;4987109;28;20062;-79
2023/09/09 05:35:22;;;;;;;8.73;6.53;;;18.30;99.90;;;;;;4987961;28;20049;-78
2023/09/09 05:37:47;;;;;;;8.45;6.00;;;18.40;99.90;;;;;;4984463;28;24916;-78
2023/09/09 05:40:13;;;;;;;8.35;5.95;;;18.40;99.90;;;;;;4986735;28;20034;-79
2023/09/09 05:42:39;;;;;;;9.18;5.43;;;18.40;99.90;;;;;;4993372;28;20030;-78
2023/09/09 05:45:08;;;;;;;10.65;6.22;;;18.40;99.90;;;;;;4984957;28;20062;-79
2023/09/09 05:47:35;;;;;;;11.13;6.40;;;18.40;99.90;;;;;;4987663;28;20439;-78
2023/09/09 05:50:01;;;;;;;10.13;6.13;;;18.50;99.90;;;;;;4977922;28;20417;-79
2023/09/09 05:52:26;;;;;;;7.85;5.80;;;18.40;99.90;;;;;;4989528;28;20026;-78
2023/09/09 05:54:52;;;;;;;10.55;6.38;;;18.40;99.90;;;;;;4988591;28;20073;-78
2023/09/09 05:57:17;;;;;;;9.98;6.20;;;18.40;99.90;;;;;;4989534;28;20049;-79
2023/09/09 05:59:43;;;;;;;7.30;5.25;;;18.50;99.90;;;;;;4996589;28;20454;-76
2023/09/09 06:02:09;;;;;;;6.95;5.25;;;18.50;99.90;;;;;;5000572;28;20076;-75
2023/09/09 06:04:34;;;;;;;7.53;5.20;;;18.50;99.90;;;;;;4990769;28;20096;-76
2023/09/09 06:07:00;;;;;;;9.98;5.57;;;18.50;99.90;;;;;;4992589;28;20088;-76
2023/09/09 06:09:26;;;;;;;9.63;5.97;;;18.50;99.90;;;;;;5000172;28;20026;-77
2023/09/09 06:11:51;;;;;;;9.23;6.15;;;18.40;99.90;;;;;;4995063;28;20496;-76
2023/09/09 06:14:17;;;;;;;9.98;7.45;;;18.40;99.90;;;;;;4987928;28;20034;-76
2023/09/09 06:16:43;;;;;;;8.70;6.53;;;18.40;99.90;;;;;;4984040;28;20026;-76
2023/09/09 06:19:08;;;;;;;8.88;6.80;;;18.40;99.90;;;;;;4988431;28;20038;-76
2023/09/09 06:21:34;;;;;;;11.50;7.20;;;18.30;99.90;;;;;;4989899;28;20037;-76
2023/09/09 06:24:00;;;;;;;8.98;6.45;;;18.40;99.90;;;;;;4995278;28;20048;-76
2023/09/09 06:26:31;;;;;;;9.45;6.25;;;18.40;99.90;;;;;;4992628;28;20026;-76
2023/09/09 06:28:57;;;;;;;9.02;6.43;;;18.50;99.90;;;;;;4991808;28;20034;-76
2023/09/09 06:31:23;;;;;;;9.10;6.38;;;18.50;99.90;;;;;;4990015;28;20034;-76
2023/09/09 06:33:48;;;;;;;9.48;5.97;;;18.60;99.90;;;;;;4989209;28;20080;-76
2023/09/09 06:36:16;;;;;;;11.35;6.00;;;18.60;99.90;;;;;;4995746;28;20345;-76
2023/09/09 06:38:41;;;;;;;8.25;6.15;;;18.60;99.90;;;;;;4995157;28;20134;-77
2023/09/09 06:41:07;;;;;;;9.45;6.72;;;18.60;99.90;;;;;;4987686;28;20487;-78
2023/09/09 06:43:33;;;;;;;9.65;5.85;;;18.60;99.90;;;;;;4994242;28;20031;-78
2023/09/09 06:46:01;;;;;;;9.18;6.63;;;18.60;99.90;;;;;;4996015;28;20053;-78
2023/09/09 06:48:28;;;;;;;10.10;6.75;;;18.60;99.90;;;;;;4987047;28;20033;-78
2023/09/09 06:50:54;;;;;;;12.52;6.82;;;18.70;99.90;;;;;;4998090;28;20085;-77
2023/09/09 06:53:20;;;;;;;8.77;6.20;;;18.80;99.90;;;;;;4988307;28;20034;-78
2023/09/09 06:55:47;;;;;;;11.25;6.32;;;18.80;99.90;;;;;;4994817;28;20034;-78
2023/09/09 06:58:13;;;;;;;10.45;6.55;;;19.00;99.90;;;;;;4991580;28;20034;-76
2023/09/09 07:00:38;;;;;;;8.40;6.22;;;19.80;99.90;;;;;;4992576;28;20080;-78
2023/09/09 07:03:05;;;;;;;12.07;6.75;;;22.50;99.90;;;;;;4992456;28;20034;-79
2023/09/09 07:05:31;;;;;;;9.68;5.72;;;25.00;99.90;;;;;;4987121;28;20434;-79
2023/09/09 07:07:57;;;;;;;12.13;6.30;;;26.20;98.10;;;;;;4984185;28;20034;-79
2023/09/09 07:10:22;;;;;;;8.75;5.63;;;26.10;97.00;;;;;;4994441;28;20030;-78
2023/09/09 07:12:49;;;;;;;7.78;5.03;;;26.30;97.20;;;;;;4993599;28;20072;-78
2023/09/09 07:15:15;;;;;;;8.85;5.53;;;26.80;96.70;;;;;;4986278;28;20073;-80
2023/09/09 07:17:43;;;;;;;11.00;6.88;;;24.80;98.10;;;;;;4991047;28;20570;-77
2023/09/09 07:20:09;;;;;;;8.18;6.15;;;22.80;99.90;;;;;;4991389;28;20117;-78
2023/09/09 07:22:35;;;;;;;8.60;5.80;;;21.60;99.90;;;;;;4988648;28;20057;-78
2023/09/09 07:25:01;;;;;;;11.00;6.82;;;20.70;99.90;;;;;;4992817;28;20070;-77
2023/09/09 07:27:26;;;;;;;8.45;6.25;;;20.40;99.90;;;;;;4988019;28;20041;-76
2023/09/09 07:29:53;;;;;;;22.13;7.07;;;20.20;99.90;;;;;;4992242;28;20032;-77
2023/09/09 07:32:19;;;;;;;10.65;6.32;;;20.00;99.90;;;;;;4982741;28;20447;-78
2023/09/09 07:34:44;;;;;;;9.32;5.75;;;20.00;99.90;;;;;;4996207;28;20113;-78
2023/09/09 07:37:10;;;;;;;10.15;6.93;;;20.00;99.90;;;;;;4987329;28;20346;-78
2023/09/09 07:39:46;;;;;;;8.07;6.28;;;20.00;99.90;;;;;;4986291;28;20049;-77
2023/09/09 07:42:13;;;;;;;9.40;6.22;;;20.00;99.90;;;;;;4991451;28;20034;-77
2023/09/09 07:44:38;;;;;;;11.32;7.82;;;20.00;99.90;;;;;;4992719;28;20023;-77
2023/09/09 07:47:06;;;;;;;9.23;7.25;;;20.10;99.90;;;;;;4987637;28;20034;-76
2023/09/09 07:49:33;;;;;;;10.27;6.82;;;20.20;99.90;;;;;;4988271;28;20034;-75
2023/09/09 07:51:59;;;;;;;10.75;7.32;;;20.20;99.90;;;;;;4987178;28;20030;-76
2023/09/09 07:54:25;;;;;;;9.20;7.07;;;20.20;99.90;;;;;;4991112;28;20093;-76
2023/09/09 07:56:51;;;;;;;9.60;6.72;;;20.30;99.90;;;;;;4992021;28;20029;-78
2023/09/09 07:59:16;;;;;;;13.75;7.00;;;20.30;99.90;;;;;;5007695;28;20045;-76
2023/09/09 08:01:43;;;;;;;9.48;7.18;;;20.40;99.90;;;;;;5007863;28;20033;-75
2023/09/09 08:04:09;;;;;;;10.38;6.55;;;20.40;99.90;;;;;;4999705;28;20111;-77
2023/09/09 08:06:34;;;;;;;12.20;7.78;;;20.60;99.90;;;;;;5001470;28;20613;-76
2023/09/09 08:09:01;;;;;;;10.50;7.22;;;20.70;99.90;;;;;;5000976;28;20415;-76
2023/09/09 08:11:26;;;;;;;12.65;8.63;;;20.70;99.90;;;;;;4983088;28;20507;-76
2023/09/09 08:13:52;;;;;;;10.93;7.50;;;20.80;99.90;;;;;;5000206;28;20046;-75
2023/09/09 08:16:18;;;;;;;15.55;8.32;;;20.70;99.90;;;;;;5002159;28;20631;-75
2023/09/09 08:18:43;;;;;;;11.07;7.53;;;20.70;99.90;;;;;;5002097;28;20068;-74
2023/09/09 08:21:10;;;;;;;10.15;7.45;;;20.80;99.90;;;;;;4998895;28;20026;-75
2023/09/09 08:23:36;;;;;;;13.18;8.43;;;20.80;99.90;;;;;;4997203;28;20038;-76
2023/09/09 08:26:02;;;;;;;11.23;7.78;;;20.80;99.90;;;;;;4996345;28;20072;-77
2023/09/09 08:28:27;;;;;;;9.65;6.47;;;20.90;99.90;;;;;;4997631;28;20441;-77
2023/09/09 08:31:00;;;;;;;13.85;7.20;;;21.00;99.90;;;;;;5001272;28;20033;-78
2023/09/09 08:33:26;;;;;;;18.67;8.05;;;21.10;99.90;;;;;;4998106;28;20046;-77
2023/09/09 08:35:57;;;;;;;12.63;7.00;;;21.20;99.90;;;;;;4997059;28;20033;-78
2023/09/09 08:38:22;;;;;;;28.88;10.68;;;21.20;99.90;;;;;;4994995;28;20120;-79
2023/09/09 08:41:14;;;;;;;11.88;8.18;;;21.30;99.90;;;;;;4995899;28;20595;-77
2023/09/09 08:43:54;;;;;;;13.07;7.15;;;21.50;99.90;;;;;;4993214;28;20518;-78
2023/09/09 08:46:21;;;;;;;15.25;8.32;;;21.50;99.90;;;;;;4996885;28;20053;-78
2023/09/09 08:48:51;;;;;;;38.13;13.98;;;21.50;99.90;;;;;;5000205;28;20878;-77
2023/09/09 08:51:19;;;;;;;11.45;7.55;;;21.70;99.90;;;;;;5002914;28;20101;-79
2023/09/09 08:53:46;;;;;;;9.82;7.57;;;21.60;99.90;;;;;;4998504;28;20034;-79
2023/09/09 08:56:15;;;;;;;13.60;8.20;;;21.60;99.90;;;;;;4999195;28;20096;-79
2023/09/09 08:58:41;;;;;;;10.90;7.30;;;22.40;99.90;;;;;;5000763;28;20444;-79
2023/09/09 09:01:07;;;;;;;13.43;6.97;;;25.40;99.90;;;;;;4986634;28;20065;-76
2023/09/09 09:03:33;;;;;;;11.35;7.65;;;27.20;99.90;;;;;;5001633;28;20033;-77
2023/09/09 09:06:03;;;;;;;8.88;6.95;;;27.60;98.70;;;;;;4982964;28;21012;-78
2023/09/09 09:08:29;;;;;;;8.88;6.82;;;28.40;97.00;;;;;;5001800;28;20029;-77
2023/09/09 09:10:59;;;;;;;11.10;7.00;;;28.60;97.30;;;;;;5002696;28;20026;-76
2023/09/09 09:13:25;;;;;;;11.35;6.90;;;28.40;97.10;;;;;;4981401;28;20101;-76
2023/09/09 09:15:51;;;;;;;8.75;7.03;;;28.40;97.10;;;;;;4992039;28;20105;-77
2023/09/09 09:18:16;;;;;;;19.48;9.15;;;29.30;96.20;;;;;;4999584;28;20035;-77
2023/09/09 09:20:42;;;;;;;20.10;8.70;;;28.90;96.40;;;;;;5000168;28;20038;-79
2023/09/09 09:23:12;;;;;;;8.82;7.05;;;29.30;96.50;;;;;;4993762;28;20475;-78
2023/09/09 09:25:44;;;;;;;8.63;6.15;;;29.70;95.40;;;;;;5009981;28;20030;-79
2023/09/09 09:28:14;;;;;;;11.27;7.43;;;29.80;95.70;;;;;;5009355;28;20385;-78
2023/09/09 09:30:41;;;;;;;9.63;7.45;;;29.80;95.30;;;;;;5010404;28;20491;-77
2023/09/09 09:33:07;;;;;;;10.32;7.80;;;30.10;95.20;;;;;;5007235;28;20032;-76
2023/09/09 09:35:35;;;;;;;11.30;7.13;;;30.40;95.10;;;;;;5009313;28;20042;-78
2023/09/09 09:38:02;;;;;;;9.10;6.40;;;30.10;94.60;;;;;;5007813;28;20030;-74
2023/09/09 09:40:30;;;;;;;10.50;6.85;;;30.10;94.90;;;;;;5010080;28;20065;-77
2023/09/09 09:42:56;;;;;;;25.67;11.35;;;29.50;95.60;;;;;;5008788;28;20030;-76
2023/09/09 09:45:26;;;;;;;18.55;8.45;;;27.90;96.60;;;;;;5009647;28;20125;-77
2023/09/09 09:47:53;;;;;;;14.15;8.77;;;26.70;97.50;;;;;;4985178;28;20383;-75
2023/09/09 09:50:30;;;;;;;17.02;7.45;;;26.00;98.80;;;;;;5009505;28;20038;-76
2023/09/09 09:53:03;;;;;;;22.15;8.52;;;25.80;98.70;;;;;;5008054;28;20939;-76
2023/09/09 09:55:30;;;;;;;17.13;8.00;;;25.50;99.30;;;;;;5009113;28;20068;-78
2023/09/09 09:57:58;;;;;;;8.73;7.00;;;25.30;99.40;;;;;;4995495;28;20022;-76
2023/09/09 10:00:25;;;;;;;10.77;7.32;;;25.30;99.20;;;;;;4990178;28;20024;-78
2023/09/09 10:02:58;;;;;;;10.68;7.03;;;25.10;99.30;;;;;;5005409;28;20040;-78
2023/09/09 10:05:25;;;;;;;9.82;6.78;;;25.00;99.30;;;;;;5004881;28;20046;-78
2023/09/09 10:08:16;;;;;;;16.20;8.02;;;24.90;99.90;;;;;;4995140;28;20030;-78
2023/09/09 10:11:04;;;;;;;12.63;8.60;;;24.90;99.90;;;;;;5009232;28;20096;-78
2023/09/09 10:13:48;;;;;;;11.13;7.28;;;24.70;99.40;;;;;;5010196;28;20551;-78
2023/09/09 10:16:14;;;;;;;;;;;24.60;99.40;;;;;;5011153;28;20049;-78
2023/09/09 10:18:41;;;;;;;23.20;11.07;;;24.70;99.90;;;;;;4997060;28;20371;-77
2023/09/09 10:21:09;;;;;;;13.73;7.75;;;25.10;99.50;;;;;;5004435;28;20034;-77
2023/09/09 10:23:36;;;;;;;9.35;7.53;;;25.30;99.40;;;;;;5010238;28;20048;-78
2023/09/09 10:26:02;;;;;;;10.57;7.68;;;25.40;98.90;;;;;;5010337;28;20038;-78
2023/09/09 10:28:29;;;;;;;12.57;8.02;;;25.20;99.60;;;;;;5010191;28;20187;-78
2023/09/09 10:30:57;;;;;;;11.23;6.53;;;25.40;99.80;;;;;;5009655;28;20080;-78
2023/09/09 10:33:23;;;;;;;8.32;6.65;;;25.40;98.60;;;;;;5008791;28;20042;-78
2023/09/09 10:35:51;;;;;;;11.73;7.13;;;25.30;98.60;;;;;;5009409;28;20057;-78
2023/09/09 10:38:18;;;;;;;10.02;6.90;;;25.30;98.40;;;;;;5007209;28;20468;-78
2023/09/09 10:40:49;;;;;;;10.73;7.28;;;25.20;98.50;;;;;;5008752;28;20114;-78
2023/09/09 10:43:15;;;;;;;16.63;7.70;;;25.40;98.60;;;;;;5007840;28;20089;-79
2023/09/09 10:45:43;;;;;;;16.75;7.53;;;25.30;98.50;;;;;;5008319;28;20419;-77
2023/09/09 10:48:12;;;;;;;13.07;7.53;;;25.50;98.90;;;;;;5007320;28;20087;-78
2023/09/09 10:50:45;;;;;;;10.60;7.32;;;25.80;98.90;;;;;;5007410;28;20096;-78
2023/09/09 10:53:23;;;;;;;18.20;9.18;;;26.00;99.00;;;;;;5007293;28;20034;-76
2023/09/09 10:55:53;;;;;;;11.80;7.43;;;26.30;99.20;;;;;;4990188;28;20097;-78
2023/09/09 10:58:20;;;;;;;11.38;7.35;;;26.10;98.30;;;;;;5001322;28;20127;-76
2023/09/09 11:00:48;;;;;;;10.63;7.45;;;26.00;98.40;;;;;;4989293;28;20037;-77
2023/09/09 11:03:21;;;;;;;20.33;8.95;;;26.10;98.60;;;;;;4992148;28;20038;-78
2023/09/09 11:06:07;;;;;;;11.37;7.00;;;26.40;98.50;;;;;;4987024;28;20505;-79
2023/09/09 11:08:35;;;;;;;13.10;7.20;;;26.60;98.70;;;;;;4993306;28;20350;-79
2023/09/09 11:11:16;;;;;;;18.58;8.80;;;26.60;98.20;;;;;;4967372;28;20038;-78
2023/09/09 11:13:57;;;;;;;11.02;6.78;;;26.60;98.00;;;;;;4985717;28;20057;-78
2023/09/09 11:16:43;;;;;;;11.18;6.90;;;26.60;98.20;;;;;;4989308;28;20507;-80
2023/09/09 11:19:14;;;;;;;9.68;6.38;;;26.80;98.00;;;;;;4987058;28;20451;-77
2023/09/09 11:22:05;;;;;;;8.65;6.03;;;26.80;98.50;;;;;;4988291;28;20030;-76
2023/09/09 11:24:31;;;;;;;11.75;6.97;;;27.10;98.90;;;;;;4983420;28;20049;-77
2023/09/09 11:26:58;;;;;;;10.95;6.00;;;27.30;98.00;;;;;;4985189;28;20400;-76
2023/09/09 11:29:24;;;;;;;10.75;6.57;;;27.10;97.50;;;;;;4991444;28;20419;-76
2023/09/09 11:31:49;;;;;;;11.48;7.35;;;27.10;97.90;;;;;;4989537;28;20034;-76
2023/09/09 11:34:15;;;;;;;14.68;7.75;;;27.20;98.40;;;;;;4987534;28;20047;-76
2023/09/09 11:36:41;;;;;;;13.10;7.60;;;27.40;97.80;;;;;;4996236;28;20034;-77
2023/09/09 11:39:07;;;;;;;10.13;7.22;;;27.30;97.60;;;;;;4996715;28;20387;-77
2023/09/09 11:41:35;;;;;;;11.27;6.95;;;27.50;98.20;;;;;;4991664;28;20073;-76
2023/09/09 11:44:06;;;;;;;10.00;7.38;;;27.40;98.00;;;;;;4989456;28;20018;-76
2023/09/09 11:46:40;;;;;;;8.95;6.30;;;27.40;98.10;;;;;;4987321;28;20034;-77
2023/09/09 11:49:06;;;;;;;7.93;6.43;;;27.60;97.40;;;;;;4983820;28;20473;-77
2023/09/09 11:51:33;;;;;;;16.80;7.03;;;27.50;96.30;;;;;;4984188;28;20037;-77
2023/09/09 11:54:02;;;;;;;9.55;6.20;;;27.50;97.30;;;;;;4988368;28;20500;-76
2023/09/09 11:56:28;;;;;;;8.60;6.72;;;27.50;97.20;;;;;;4988793;28;20028;-77
2023/09/09 11:58:53;;;;;;;9.07;7.00;;;27.60;97.00;;;;;;4986723;28;20026;-77
2023/09/09 12:01:20;;;;;;;7.97;5.95;;;27.70;97.30;;;;;;4983704;28;20038;-77
2023/09/09 12:03:50;;;;;;;11.18;6.43;;;27.80;97.30;;;;;;4983221;28;20519;-77
2023/09/09 12:06:18;;;;;;;8.95;5.72;;;28.00;97.10;;;;;;4985314;28;20054;-77
2023/09/09 12:08:44;;;;;;;9.68;6.88;;;27.90;97.20;;;;;;4983485;28;20041;-76
2023/09/09 12:11:12;;;;;;;12.77;6.45;;;28.00;97.90;;;;;;4985645;28;20038;-76
2023/09/09 12:13:38;;;;;;;11.00;5.55;;;28.20;97.90;;;;;;4982554;28;20050;-76
2023/09/09 12:16:07;;;;;;;9.02;6.20;;;28.30;98.00;;;;;;4984583;28;20026;-76
2023/09/09 12:18:33;;;;;;;11.43;7.00;;;28.40;97.10;;;;;;4996265;28;20023;-76
2023/09/09 12:21:08;;;;;;;8.57;5.97;;;28.30;97.80;;;;;;4982151;28;20057;-76
2023/09/09 12:23:35;;;;;;;12.35;6.90;;;28.50;96.80;;;;;;4983698;28;20015;-75
2023/09/09 12:26:18;;;;;;;9.40;6.80;;;28.40;96.90;;;;;;4982320;28;20109;-76
2023/09/09 12:29:05;;;;;;;9.00;6.30;;;28.30;96.60;;;;;;4984347;28;20041;-76
2023/09/09 12:31:33;;;;;;;10.00;7.18;;;28.20;96.40;;;;;;4978282;28;20041;-76
2023/09/09 12:33:59;;;;;;;9.93;6.03;;;28.30;97.00;;;;;;4980433;28;20163;-76
2023/09/09 12:36:24;;;;;;;10.93;6.45;;;28.20;96.60;;;;;;4982413;28;20105;-76
2023/09/09 12:38:50;;;;;;;13.40;6.47;;;28.40;96.90;;;;;;4983798;28;20065;-76
2023/09/09 12:41:21;;;;;;;8.55;5.75;;;28.20;96.20;;;;;;4982917;28;20599;-75
2023/09/09 12:43:52;;;;;;;10.02;5.97;;;28.50;97.10;;;;;;4986100;28;20050;-76